Time;durP1;ratioP1;P1;durP2;ratioP2;P2;SDS_P1;SDS_P2;PMS_P1;PMS_P2;Temp;Humidity;BMP_temperature;BMP_pressure;BME280_temperature;BME280_humidity;BME280_pressure;Samples;Min_cycle;Max_cycle;Signal;HPM_P1;HPM_P2
2022/07/06 00:02:59;;;;;;;0.10;0.10;;;;;;;;;;10558056;28;20058;-69
2022/07/06 00:08:01;;;;;;;0.20;0.20;;;;;;;;;;10573124;28;20040;-69
2022/07/06 00:13:04;;;;;;;0.10;0.10;;;;;;;;;;10563848;28;20055;-69
2022/07/06 00:18:08;;;;;;;0.10;0.10;;;;;;;;;;10523799;28;20044;-69
2022/07/06 00:23:11;;;;;;;0.10;0.10;;;;;;;;;;10538199;28;20040;-69
2022/07/06 00:28:14;;;;;;;0.10;0.10;;;;;;;;;;10537797;28;20082;-69
2022/07/06 00:33:18;;;;;;;0.20;0.20;;;;;;;;;;10547999;28;20064;-69
2022/07/06 00:38:21;;;;;;;0.10;0.10;;;;;;;;;;10560500;28;20089;-69
2022/07/06 00:43:24;;;;;;;0.13;0.13;;;;;;;;;;10541925;28;20059;-68
2022/07/06 00:48:28;;;;;;;0.20;0.20;;;;;;;;;;10579122;28;20247;-69
2022/07/06 00:53:31;;;;;;;0.20;0.20;;;;;;;;;;10560169;28;20051;-69
2022/07/06 00:58:33;;;;;;;0.20;0.20;;;;;;;;;;10522405;28;20048;-67
2022/07/06 01:03:37;;;;;;;0.10;0.10;;;;;;;;;;10533612;28;20052;-66
2022/07/06 01:08:40;;;;;;;0.10;0.10;;;;;;;;;;10535945;28;20333;-66
2022/07/06 01:13:43;;;;;;;0.20;0.20;;;;;;;;;;10522489;28;20086;-66
2022/07/06 01:18:48;;;;;;;0.20;0.20;;;;;;;;;;10525632;28;20055;-66
2022/07/06 01:23:52;;;;;;;0.20;0.20;;;;;;;;;;10546580;28;20044;-67
2022/07/06 01:28:54;;;;;;;0.20;0.20;;;;;;;;;;10555683;28;20048;-67
2022/07/06 01:33:58;;;;;;;0.20;0.20;;;;;;;;;;10563572;28;20048;-66
2022/07/06 01:39:03;;;;;;;0.13;0.13;;;;;;;;;;10535336;28;20040;-66
2022/07/06 01:44:06;;;;;;;0.20;0.20;;;;;;;;;;10534559;28;20056;-67
2022/07/06 01:49:08;;;;;;;0.20;0.20;;;;;;;;;;10535074;28;20050;-66
2022/07/06 01:54:12;;;;;;;0.20;0.20;;;;;;;;;;10535942;28;20048;-66
2022/07/06 01:59:14;;;;;;;0.20;0.20;;;;;;;;;;10576075;28;20118;-66
2022/07/06 02:04:17;;;;;;;0.20;0.20;;;;;;;;;;10569875;28;20044;-65
2022/07/06 02:09:21;;;;;;;0.15;0.15;;;;;;;;;;10534271;28;20063;-66
2022/07/06 02:14:23;;;;;;;0.20;0.20;;;;;;;;;;10575928;28;20048;-66
2022/07/06 02:19:26;;;;;;;0.20;0.20;;;;;;;;;;10575653;28;20046;-67
2022/07/06 02:24:30;;;;;;;0.20;0.20;;;;;;;;;;10576399;28;20285;-66
2022/07/06 02:29:32;;;;;;;0.20;0.20;;;;;;;;;;10574707;28;20040;-66
2022/07/06 02:34:35;;;;;;;0.20;0.20;;;;;;;;;;10560918;28;20315;-66
2022/07/06 02:39:40;;;;;;;0.20;0.20;;;;;;;;;;10560143;28;20055;-67
2022/07/06 02:44:42;;;;;;;;;;;;;;;;;;10533057;28;20336;-66
2022/07/06 02:49:44;;;;;;;0.20;0.20;;;;;;;;;;10572971;28;19916;-67
2022/07/06 02:54:49;;;;;;;0.20;0.20;;;;;;;;;;10533211;28;20295;-67
2022/07/06 02:59:52;;;;;;;0.20;0.20;;;;;;;;;;10557762;28;20047;-66
2022/07/06 03:04:54;;;;;;;0.20;0.20;;;;;;;;;;10558849;28;20052;-67
2022/07/06 03:09:58;;;;;;;0.20;0.20;;;;;;;;;;10559401;28;20052;-66
2022/07/06 03:15:00;;;;;;;0.27;0.27;;;;;;;;;;10573491;28;20040;-66
2022/07/06 03:20:03;;;;;;;0.20;0.20;;;;;;;;;;10534547;28;20297;-66
2022/07/06 03:25:09;;;;;;;0.80;0.80;;;;;;;;;;10530305;28;20036;-66
2022/07/06 03:30:12;;;;;;;11.00;10.50;;;;;;;;;;10544317;28;20052;-66
2022/07/06 03:35:15;;;;;;;9.80;9.40;;;;;;;;;;10530868;28;20350;-67
2022/07/06 03:40:19;;;;;;;8.77;8.38;;;;;;;;;;10550671;28;20051;-67
2022/07/06 03:45:21;;;;;;;2.80;2.70;;;;;;;;;;10551453;28;20044;-67
2022/07/06 03:50:24;;;;;;;9.20;8.80;;;;;;;;;;10551289;28;20052;-67
2022/07/06 03:55:28;;;;;;;;;;;;;;;;;;10554866;28;20063;-67
2022/07/06 04:00:30;;;;;;;7.45;7.15;;;;;;;;;;10518488;28;19916;-67
2022/07/06 04:05:33;;;;;;;5.90;5.68;;;;;;;;;;10551111;28;20051;-67
2022/07/06 04:10:37;;;;;;;0.00;0.00;;;;;;;;;;10519465;28;20057;-68
2022/07/06 04:15:39;;;;;;;7.45;7.15;;;;;;;;;;10569509;28;20048;-68
2022/07/06 04:20:42;;;;;;;0.00;0.00;;;;;;;;;;10571909;28;20044;-67
2022/07/06 04:25:46;;;;;;;1.42;1.42;;;;;;;;;;10571924;28;20040;-67
2022/07/06 04:30:49;;;;;;;7.07;6.80;;;;;;;;;;10570360;28;20060;-67
2022/07/06 04:35:52;;;;;;;7.18;6.82;;;;;;;;;;10534837;28;20049;-67
2022/07/06 04:40:56;;;;;;;8.95;8.55;;;;;;;;;;10529741;28;20044;-67
2022/07/06 04:46:00;;;;;;;10.32;9.75;;;;;;;;;;10529830;28;20043;-67
2022/07/06 04:51:03;;;;;;;0.00;0.00;;;;;;;;;;10566205;28;20284;-68
2022/07/06 04:56:07;;;;;;;0.00;0.00;;;;;;;;;;10573722;28;20049;-68
2022/07/06 05:01:09;;;;;;;0.00;0.00;;;;;;;;;;10542327;28;20044;-68
2022/07/06 05:06:12;;;;;;;0.00;0.00;;;;;;;;;;10522343;28;20060;-68
2022/07/06 05:11:16;;;;;;;0.00;0.00;;;;;;;;;;10523049;28;20048;-68
2022/07/06 05:16:18;;;;;;;0.00;0.00;;;;;;;;;;10567716;28;20037;-69
2022/07/06 05:21:21;;;;;;;0.00;0.00;;;;;;;;;;10541600;28;20043;-68
2022/07/06 05:26:24;;;;;;;0.00;0.00;;;;;;;;;;10571903;28;20040;-67
2022/07/06 05:31:27;;;;;;;0.00;0.00;;;;;;;;;;10568808;28;20063;-68
2022/07/06 05:36:30;;;;;;;0.10;0.10;;;;;;;;;;10525188;28;20052;-68
2022/07/06 05:41:34;;;;;;;0.20;0.20;;;;;;;;;;10557072;28;20059;-68
2022/07/06 05:46:36;;;;;;;0.30;0.30;;;;;;;;;;10574960;28;20252;-68
2022/07/06 05:51:39;;;;;;;0.32;0.32;;;;;;;;;;10575389;28;20040;-69
2022/07/06 05:56:43;;;;;;;0.50;0.50;;;;;;;;;;10539607;28;20139;-69
2022/07/06 06:01:45;;;;;;;0.60;0.60;;;;;;;;;;10568761;28;20339;-69
2022/07/06 06:06:48;;;;;;;0.80;0.80;;;;;;;;;;10525537;28;20064;-69
2022/07/06 06:11:51;;;;;;;1.00;1.00;;;;;;;;;;10568259;28;20040;-69
2022/07/06 06:16:54;;;;;;;1.40;1.40;;;;;;;;;;10525547;28;20116;-69
2022/07/06 06:21:57;;;;;;;1.70;1.70;;;;;;;;;;10532961;28;20049;-69
2022/07/06 06:27:01;;;;;;;2.00;2.00;;;;;;;;;;10532744;28;20047;-70
2022/07/06 06:32:05;;;;;;;2.80;2.70;;;;;;;;;;10540511;28;20082;-68
2022/07/06 06:37:08;;;;;;;3.58;3.47;;;;;;;;;;10575155;28;20227;-69
2022/07/06 06:42:12;;;;;;;4.57;4.47;;;;;;;;;;10573699;28;20039;-69
2022/07/06 06:47:14;;;;;;;5.85;5.65;;;;;;;;;;10565669;28;20047;-68
2022/07/06 06:52:17;;;;;;;6.80;6.60;;;;;;;;;;10532078;28;20247;-69
2022/07/06 06:57:21;;;;;;;8.30;8.00;;;;;;;;;;10531160;28;20441;-70
2022/07/06 07:02:23;;;;;;;10.07;9.68;;;;;;;;;;10535106;28;20040;-69
2022/07/06 07:07:25;;;;;;;11.73;11.23;;;;;;;;;;10526232;28;20048;-69
2022/07/06 07:12:29;;;;;;;12.98;12.38;;;;;;;;;;10563478;28;20040;-69
2022/07/06 07:17:32;;;;;;;13.52;12.93;;;;;;;;;;10524313;28;20052;-69
2022/07/06 07:22:35;;;;;;;13.30;12.70;;;;;;;;;;10572720;28;20036;-69
2022/07/06 07:27:39;;;;;;;15.82;15.13;;;;;;;;;;10549933;28;20059;-69
2022/07/06 07:32:42;;;;;;;18.73;17.83;;;;;;;;;;10549553;28;20053;-69
2022/07/06 07:37:45;;;;;;;21.15;20.05;;;;;;;;;;10524827;28;20052;-69
2022/07/06 07:42:48;;;;;;;24.52;23.23;;;;;;;;;;10564127;28;20047;-69
2022/07/06 07:47:51;;;;;;;28.02;26.52;;;;;;;;;;10572802;28;20044;-69
2022/07/06 07:52:54;;;;;;;31.52;29.83;;;;;;;;;;10558463;28;20041;-69
2022/07/06 07:57:58;;;;;;;38.80;36.60;;;;;;;;;;10534288;28;20097;-69
2022/07/06 08:03:00;;;;;;;33.90;32.05;;;;;;;;;;10532657;28;20231;-69
2022/07/06 08:08:02;;;;;;;3.00;2.90;;;;;;;;;;10530391;28;20052;-68
2022/07/06 08:13:07;;;;;;;16.20;15.40;;;;;;;;;;10516734;28;20067;-69
2022/07/06 08:18:10;;;;;;;32.05;30.35;;;;;;;;;;10568072;28;20090;-69
2022/07/06 08:23:12;;;;;;;40.55;38.25;;;;;;;;;;10530140;28;20044;-69
2022/07/06 08:28:17;;;;;;;54.88;51.58;;;;;;;;;;10531417;28;20093;-69
2022/07/06 08:33:20;;;;;;;66.13;61.90;;;;;;;;;;10562444;28;20071;-69
2022/07/06 08:38:23;;;;;;;75.60;70.60;;;;;;;;;;10560311;28;20041;-70
2022/07/06 08:43:28;;;;;;;88.25;82.15;;;;;;;;;;10514352;28;20071;-69
2022/07/06 08:48:37;;;;;;;103.35;95.90;;;;;;;;;;10535538;28;20047;-70
2022/07/06 08:53:41;;;;;;;33.15;31.35;;;;;;;;;;10517180;28;20209;-69
2022/07/06 08:58:45;;;;;;;2.80;2.70;;;;;;;;;;10513892;28;20044;-70
2022/07/06 09:03:50;;;;;;;0.10;0.10;;;;;;;;;;10516073;28;20041;-69
2022/07/06 09:08:56;;;;;;;0.00;0.00;;;;;;;;;;10468152;28;20059;-69
2022/07/06 09:14:00;;;;;;;0.00;0.00;;;;;;;;;;10535835;28;20115;-69
2022/07/06 09:19:05;;;;;;;0.00;0.00;;;;;;;;;;10507950;28;20068;-67
2022/07/06 09:24:09;;;;;;;0.00;0.00;;;;;;;;;;10481192;28;20120;-68
2022/07/06 09:29:13;;;;;;;0.00;0.00;;;;;;;;;;10506685;28;20048;-69
2022/07/06 09:34:16;;;;;;;0.00;0.00;;;;;;;;;;10514585;28;20063;-68
2022/07/06 09:39:21;;;;;;;0.00;0.00;;;;;;;;;;10526243;28;20272;-68
2022/07/06 09:44:26;;;;;;;0.00;0.00;;;;;;;;;;10501288;28;20047;-68
2022/07/06 09:49:30;;;;;;;0.00;0.00;;;;;;;;;;10522114;28;20040;-70
2022/07/06 09:54:33;;;;;;;0.00;0.00;;;;;;;;;;10500648;28;20037;-69
2022/07/06 09:59:38;;;;;;;0.00;0.00;;;;;;;;;;10526009;28;20064;-67
2022/07/06 10:04:41;;;;;;;0.00;0.00;;;;;;;;;;10503866;28;20056;-69
2022/07/06 10:09:45;;;;;;;0.00;0.00;;;;;;;;;;10565910;28;20048;-69
2022/07/06 10:14:51;;;;;;;1.08;1.08;;;;;;;;;;10561336;28;20047;-67
2022/07/06 10:19:55;;;;;;;0.00;0.00;;;;;;;;;;10559330;28;20052;-67
2022/07/06 10:24:59;;;;;;;0.00;0.00;;;;;;;;;;10560611;28;20052;-67
2022/07/06 10:30:03;;;;;;;0.00;0.00;;;;;;;;;;10574492;28;20044;-68
2022/07/06 10:35:07;;;;;;;0.00;0.00;;;;;;;;;;10522466;28;20060;-69
2022/07/06 10:45:54;;;;;;;0.00;0.00;;;;;;;;;;10533835;28;20040;-69
2022/07/06 10:50:58;;;;;;;0.00;0.00;;;;;;;;;;10573791;28;20065;-67
2022/07/06 10:56:03;;;;;;;0.00;0.00;;;;;;;;;;10545869;28;20040;-68
2022/07/06 11:01:07;;;;;;;0.00;0.00;;;;;;;;;;10532241;28;20045;-69
2022/07/06 11:06:13;;;;;;;0.00;0.00;;;;;;;;;;10532043;28;20062;-69
2022/07/06 11:11:17;;;;;;;0.00;0.00;;;;;;;;;;10573368;28;20048;-69
2022/07/06 11:16:23;;;;;;;0.00;0.00;;;;;;;;;;10548332;28;20049;-67
2022/07/06 11:21:35;;;;;;;0.00;0.00;;;;;;;;;;10548377;28;20036;-67
2022/07/06 11:26:38;;;;;;;3.30;3.20;;;;;;;;;;10571895;28;20351;-67
2022/07/06 11:31:43;;;;;;;0.00;0.00;;;;;;;;;;10563469;28;20056;-69
2022/07/06 11:36:46;;;;;;;0.00;0.00;;;;;;;;;;10520755;28;20048;-70
2022/07/06 11:41:48;;;;;;;0.00;0.00;;;;;;;;;;10567083;28;20048;-68
2022/07/06 11:46:54;;;;;;;0.00;0.00;;;;;;;;;;10530626;28;20040;-67
2022/07/06 11:51:57;;;;;;;0.00;0.00;;;;;;;;;;10533261;28;20040;-69
2022/07/06 11:57:00;;;;;;;0.00;0.00;;;;;;;;;;10567484;28;20051;-69
2022/07/06 12:02:06;;;;;;;11.10;10.50;;;;;;;;;;10568457;28;20328;-68
2022/07/06 12:07:11;;;;;;;8.95;8.55;;;;;;;;;;10522859;28;20232;-69
2022/07/06 12:12:15;;;;;;;9.50;9.00;;;;;;;;;;10575413;28;20244;-68
2022/07/06 12:17:20;;;;;;;10.95;10.45;;;;;;;;;;10538035;28;20078;-68
2022/07/06 12:22:26;;;;;;;5.97;5.78;;;;;;;;;;10525868;28;20060;-68
2022/07/06 12:27:28;;;;;;;5.18;4.97;;;;;;;;;;10559412;28;20094;-68
2022/07/06 12:32:36;;;;;;;6.35;6.15;;;;;;;;;;10543554;28;20068;-69
2022/07/06 12:37:38;;;;;;;2.85;2.75;;;;;;;;;;10545671;28;20059;-69
2022/07/06 12:42:47;;;;;;;9.50;9.10;;;;;;;;;;10559270;28;20082;-68
2022/07/06 12:48:10;;;;;;;10.05;9.55;;;;;;;;;;10537369;28;20099;-66
2022/07/06 12:53:26;;;;;;;0.00;0.00;;;;;;;;;;10558809;28;20048;-70
2022/07/06 12:58:28;;;;;;;6.70;6.50;;;;;;;;;;10579004;28;20047;-69
2022/07/06 13:03:40;;;;;;;0.00;0.00;;;;;;;;;;10565349;28;20066;-69
2022/07/06 13:08:42;;;;;;;0.65;0.65;;;;;;;;;;10572913;28;20048;-68
2022/07/06 13:13:45;;;;;;;0.00;0.00;;;;;;;;;;10544281;28;20067;-69
2022/07/06 13:18:49;;;;;;;6.18;5.88;;;;;;;;;;10534744;28;20052;-69
2022/07/06 13:23:52;;;;;;;9.25;8.85;;;;;;;;;;10551589;28;20040;-69
2022/07/06 13:28:54;;;;;;;5.70;5.50;;;;;;;;;;10543984;28;20043;-69
2022/07/06 13:33:59;;;;;;;0.00;0.00;;;;;;;;;;10545884;28;20068;-70
2022/07/06 13:39:01;;;;;;;0.00;0.00;;;;;;;;;;10552070;28;20045;-68
2022/07/06 13:44:04;;;;;;;4.88;4.78;;;;;;;;;;10541568;28;20063;-67
2022/07/06 13:49:08;;;;;;;4.60;4.50;;;;;;;;;;10551206;28;20344;-68
2022/07/06 13:54:10;;;;;;;3.90;3.80;;;;;;;;;;10546094;28;20041;-68
2022/07/06 13:59:13;;;;;;;0.00;0.00;;;;;;;;;;10544613;28;20052;-68
2022/07/06 14:04:17;;;;;;;0.00;0.00;;;;;;;;;;10532886;28;20056;-69
2022/07/06 14:09:19;;;;;;;12.07;11.48;;;;;;;;;;10535695;28;20056;-69
2022/07/06 14:14:21;;;;;;;;;;;;;;;;;;10546601;28;20204;-68
2022/07/06 14:19:26;;;;;;;8.10;7.80;;;;;;;;;;10545676;28;20201;-68
2022/07/06 14:24:28;;;;;;;9.75;9.35;;;;;;;;;;10546219;28;20052;-68
2022/07/06 14:29:30;;;;;;;10.13;9.63;;;;;;;;;;10532478;28;20044;-67
2022/07/06 14:34:35;;;;;;;10.13;9.63;;;;;;;;;;10536830;28;20228;-69
2022/07/06 14:39:38;;;;;;;10.07;9.57;;;;;;;;;;10522116;28;20242;-68
2022/07/06 14:44:40;;;;;;;10.00;9.50;;;;;;;;;;10532391;28;20093;-68
2022/07/06 14:49:44;;;;;;;;;;;;;;;;;;10534019;28;20048;-68
2022/07/06 14:54:46;;;;;;;9.60;9.20;;;;;;;;;;10549710;28;20208;-68
2022/07/06 14:59:48;;;;;;;0.00;0.00;;;;;;;;;;10518083;28;20048;-67
2022/07/06 15:04:52;;;;;;;0.00;0.00;;;;;;;;;;10527584;28;20039;-67
2022/07/06 15:09:55;;;;;;;0.00;0.00;;;;;;;;;;10532496;28;20052;-68
2022/07/06 15:14:57;;;;;;;0.00;0.00;;;;;;;;;;10533628;28;20354;-68
2022/07/06 15:20:02;;;;;;;0.00;0.00;;;;;;;;;;10517616;28;20110;-68
2022/07/06 15:25:05;;;;;;;0.00;0.00;;;;;;;;;;10535056;28;20052;-69
2022/07/06 15:30:08;;;;;;;0.00;0.00;;;;;;;;;;10516268;28;20048;-69
2022/07/06 15:35:13;;;;;;;0.00;0.00;;;;;;;;;;10517198;28;20071;-68
2022/07/06 15:41:03;;;;;;;0.00;0.00;;;;;;;;;;10533157;28;20147;-67
2022/07/06 15:46:06;;;;;;;0.00;0.00;;;;;;;;;;10530287;28;20350;-68
2022/07/06 15:51:10;;;;;;;4.57;4.47;;;;;;;;;;10530649;28;20047;-69
2022/07/06 15:56:13;;;;;;;0.00;0.00;;;;;;;;;;10537092;28;20037;-68
2022/07/06 16:01:16;;;;;;;0.00;0.00;;;;;;;;;;10543951;28;20328;-68
2022/07/06 16:06:20;;;;;;;0.00;0.00;;;;;;;;;;10519284;28;20044;-66
2022/07/06 16:11:22;;;;;;;0.00;0.00;;;;;;;;;;10531499;28;20328;-67
2022/07/06 16:16:25;;;;;;;0.00;0.00;;;;;;;;;;10539024;28;20054;-68
2022/07/06 16:21:29;;;;;;;;;;;;;;;;;;10522879;28;20247;-67
2022/07/06 16:26:32;;;;;;;3.22;3.13;;;;;;;;;;10535769;28;19928;-73
2022/07/06 16:31:35;;;;;;;4.37;4.27;;;;;;;;;;10514436;28;20091;-69
2022/07/06 16:36:39;;;;;;;4.13;4.03;;;;;;;;;;10530431;28;20052;-68
2022/07/06 16:41:41;;;;;;;9.70;9.30;;;;;;;;;;10525965;28;20051;-68
2022/07/06 16:46:44;;;;;;;13.67;9.90;;;;;;;;;;10529586;28;20044;-67
2022/07/06 16:51:49;;;;;;;0.00;0.00;;;;;;;;;;10521862;28;20101;-69
2022/07/06 16:56:51;;;;;;;2.92;2.83;;;;;;;;;;10553871;28;20289;-69
2022/07/06 17:01:55;;;;;;;7.55;7.25;;;;;;;;;;10536686;28;20328;-67
2022/07/06 17:06:59;;;;;;;7.00;6.45;;;;;;;;;;10530276;28;20048;-69
2022/07/06 17:12:01;;;;;;;7.40;7.10;;;;;;;;;;10558038;28;20378;-68
2022/07/06 17:17:04;;;;;;;11.70;11.20;;;;;;;;;;10540290;28;20063;-69
2022/07/06 17:22:09;;;;;;;4.63;4.50;;;;;;;;;;10542271;28;20319;-68
2022/07/06 17:27:11;;;;;;;0.00;0.00;;;;;;;;;;10539112;28;20048;-69
2022/07/06 17:32:15;;;;;;;9.27;8.88;;;;;;;;;;10530102;28;20060;-67
2022/07/06 17:37:19;;;;;;;0.47;0.47;;;;;;;;;;10537508;28;20328;-67
2022/07/06 17:42:24;;;;;;;0.45;0.45;;;;;;;;;;10530917;28;20044;-69
2022/07/06 17:47:27;;;;;;;7.43;7.13;;;;;;;;;;10531712;28;20056;-67
2022/07/06 17:52:32;;;;;;;0.00;0.00;;;;;;;;;;10543650;28;20059;-69
2022/07/06 17:57:34;;;;;;;0.00;0.00;;;;;;;;;;10559146;28;20040;-68
2022/07/06 18:02:38;;;;;;;5.40;5.20;;;;;;;;;;10534250;28;20033;-68
2022/07/06 18:07:42;;;;;;;0.00;0.00;;;;;;;;;;10538837;28;20315;-68
2022/07/06 18:12:44;;;;;;;0.00;0.00;;;;;;;;;;10533861;28;20654;-68
2022/07/06 18:17:50;;;;;;;0.00;0.00;;;;;;;;;;10534440;28;20118;-68
2022/07/06 18:22:55;;;;;;;0.10;0.10;;;;;;;;;;10533287;28;20051;-68
2022/07/06 18:27:57;;;;;;;2.25;2.22;;;;;;;;;;10544991;28;20058;-67
2022/07/06 18:33:00;;;;;;;0.30;0.30;;;;;;;;;;10525291;28;20075;-66
2022/07/06 18:38:04;;;;;;;0.10;0.10;;;;;;;;;;10518624;28;20060;-68
2022/07/06 18:43:09;;;;;;;0.10;0.10;;;;;;;;;;10535311;28;20274;-67
2022/07/06 18:48:12;;;;;;;3.15;3.05;;;;;;;;;;10532814;28;20332;-67
2022/07/06 18:53:18;;;;;;;0.10;0.10;;;;;;;;;;10528666;28;20056;-66
2022/07/06 18:58:20;;;;;;;0.10;0.10;;;;;;;;;;10544158;28;20059;-68
2022/07/06 19:03:23;;;;;;;0.10;0.10;;;;;;;;;;10550710;28;20078;-67
2022/07/06 19:08:27;;;;;;;0.10;0.10;;;;;;;;;;10545957;28;20217;-69
2022/07/06 19:13:29;;;;;;;0.32;0.32;;;;;;;;;;10555201;28;20048;-69
2022/07/06 19:18:31;;;;;;;0.10;0.10;;;;;;;;;;10543640;28;20063;-66
2022/07/06 19:23:36;;;;;;;0.45;0.45;;;;;;;;;;10542289;28;20232;-68
2022/07/06 19:28:38;;;;;;;0.10;0.10;;;;;;;;;;10553775;28;20063;-68
2022/07/06 19:33:41;;;;;;;0.10;0.10;;;;;;;;;;10556589;28;20067;-66
2022/07/06 19:38:45;;;;;;;0.10;0.10;;;;;;;;;;10557466;28;20060;-68
2022/07/06 19:43:49;;;;;;;0.10;0.10;;;;;;;;;;10506568;28;20048;-69
2022/07/06 19:48:53;;;;;;;0.20;0.20;;;;;;;;;;10540368;28;20036;-68
2022/07/06 19:53:57;;;;;;;0.10;0.10;;;;;;;;;;10555916;28;20304;-68
2022/07/06 19:59:00;;;;;;;0.10;0.10;;;;;;;;;;10551786;28;20047;-68
2022/07/06 20:04:05;;;;;;;1.60;1.60;;;;;;;;;;10535570;28;20059;-67
2022/07/06 20:09:09;;;;;;;0.10;0.10;;;;;;;;;;10534580;28;20067;-69
2022/07/06 20:14:12;;;;;;;0.20;0.20;;;;;;;;;;10554933;28;20243;-66
2022/07/06 20:19:18;;;;;;;0.20;0.20;;;;;;;;;;10572103;28;20328;-69
2022/07/06 20:24:22;;;;;;;0.20;0.20;;;;;;;;;;10556792;28;20045;-69
2022/07/06 20:29:24;;;;;;;0.20;0.20;;;;;;;;;;10548851;28;20043;-67
2022/07/06 20:34:27;;;;;;;0.13;0.13;;;;;;;;;;10562020;28;20056;-69
2022/07/06 20:39:31;;;;;;;0.17;0.17;;;;;;;;;;10533344;28;20331;-67
2022/07/06 20:44:34;;;;;;;0.20;0.20;;;;;;;;;;10538201;28;20041;-70
2022/07/06 20:49:36;;;;;;;0.10;0.10;;;;;;;;;;10576188;28;20047;-67
2022/07/06 20:54:40;;;;;;;0.10;0.10;;;;;;;;;;10553648;28;20059;-67
2022/07/06 20:59:43;;;;;;;0.20;0.20;;;;;;;;;;10567782;28;20338;-66
2022/07/06 21:04:47;;;;;;;0.10;0.10;;;;;;;;;;10531831;28;20070;-67
2022/07/06 21:09:53;;;;;;;0.15;0.15;;;;;;;;;;10566834;28;20043;-67
2022/07/06 21:14:57;;;;;;;0.10;0.10;;;;;;;;;;10553149;28;20044;-66
2022/07/06 21:20:00;;;;;;;0.10;0.10;;;;;;;;;;10578605;28;20040;-66
2022/07/06 21:25:04;;;;;;;0.10;0.10;;;;;;;;;;10529500;28;20060;-66
2022/07/06 21:30:07;;;;;;;0.10;0.10;;;;;;;;;;10544144;28;20040;-65
2022/07/06 21:35:11;;;;;;;0.10;0.10;;;;;;;;;;10522221;28;20081;-68
2022/07/06 21:40:14;;;;;;;0.10;0.10;;;;;;;;;;10535123;28;20053;-66
2022/07/06 21:45:17;;;;;;;0.20;0.20;;;;;;;;;;10535403;28;20040;-67
2022/07/06 21:50:19;;;;;;;0.10;0.10;;;;;;;;;;10535059;28;20300;-66
2022/07/06 21:55:23;;;;;;;0.20;0.20;;;;;;;;;;10570837;28;20047;-67
2022/07/06 22:00:25;;;;;;;0.15;0.15;;;;;;;;;;10576776;28;20052;-68
2022/07/06 22:05:29;;;;;;;0.20;0.20;;;;;;;;;;10566079;28;20063;-68
2022/07/06 22:10:33;;;;;;;0.20;0.20;;;;;;;;;;10520955;28;20139;-67
2022/07/06 22:15:35;;;;;;;0.20;0.20;;;;;;;;;;10520946;28;20252;-67
2022/07/06 22:20:40;;;;;;;0.20;0.20;;;;;;;;;;10520209;28;20083;-66
2022/07/06 22:25:44;;;;;;;0.20;0.20;;;;;;;;;;10519504;28;20056;-68
2022/07/06 22:30:46;;;;;;;0.10;0.10;;;;;;;;;;10520697;28;20075;-66
2022/07/06 22:35:49;;;;;;;0.20;0.20;;;;;;;;;;10575519;28;20157;-66
2022/07/06 22:41:01;;;;;;;0.10;0.10;;;;;;;;;;10576111;28;20044;-67
2022/07/06 22:46:05;;;;;;;0.10;0.10;;;;;;;;;;10520258;28;20070;-67
2022/07/06 22:51:08;;;;;;;0.20;0.20;;;;;;;;;;10559851;28;20044;-69
2022/07/06 22:56:12;;;;;;;0.10;0.10;;;;;;;;;;10532763;28;20067;-67
2022/07/06 23:01:16;;;;;;;0.10;0.10;;;;;;;;;;10532871;28;20048;-67
2022/07/06 23:06:19;;;;;;;0.10;0.10;;;;;;;;;;10556003;28;20059;-67
2022/07/06 23:11:24;;;;;;;0.10;0.10;;;;;;;;;;10535840;28;20335;-67
2022/07/06 23:16:27;;;;;;;0.10;0.10;;;;;;;;;;10556024;28;20112;-68
2022/07/06 23:21:29;;;;;;;0.10;0.10;;;;;;;;;;10572660;28;20565;-69
2022/07/06 23:26:33;;;;;;;0.10;0.10;;;;;;;;;;10557032;28;21468;-69
2022/07/06 23:31:36;;;;;;;0.10;0.10;;;;;;;;;;10543483;28;20052;-68
2022/07/06 23:36:39;;;;;;;0.10;0.10;;;;;;;;;;10538027;28;20074;-68
2022/07/06 23:41:43;;;;;;;0.10;0.10;;;;;;;;;;10559002;28;20227;-68
2022/07/06 23:46:45;;;;;;;0.20;0.20;;;;;;;;;;10573247;28;20048;-68
2022/07/06 23:51:48;;;;;;;0.20;0.20;;;;;;;;;;10572125;28;20077;-68
2022/07/06 23:56:52;;;;;;;0.10;0.10;;;;;;;;;;10543359;28;20071;-68
